createdAt,value
2022-09-20T00:00:04.321Z,99847.57
2022-09-20T00:05:27.597Z,99851.30
2022-09-20T00:10:36.281Z,99849.41
2022-09-20T00:15:45.119Z,99845.91
2022-09-20T00:20:50.202Z,99848.02
2022-09-20T00:26:01.672Z,99857.80
2022-09-20T00:31:05.292Z,99859.15
2022-09-20T00:36:08.437Z,99864.38
2022-09-20T00:41:11.538Z,99865.39
2022-09-20T00:46:29.267Z,99866.06
2022-09-20T00:51:38.194Z,99869.35
2022-09-20T00:56:44.295Z,99873.06
2022-09-20T01:01:53.165Z,99878.13
2022-09-20T01:07:02.355Z,99876.66
2022-09-20T01:12:09.825Z,99878.48
2022-09-20T01:17:14.198Z,99879.19
2022-09-20T01:22:23.143Z,99879.65
2022-09-20T01:27:52.575Z,99885.51
2022-09-20T01:33:09.804Z,99891.30
2022-09-20T01:38:25.196Z,99891.45
2022-09-20T01:43:49.268Z,99890.70
2022-09-20T01:48:59.597Z,99884.86
2022-09-20T01:54:21.150Z,99882.14
2022-09-20T01:59:43.075Z,99879.79
2022-09-20T02:05:30.727Z,99879.84
2022-09-20T02:11:05.284Z,99881.34
2022-09-20T02:16:39.235Z,99883.09
2022-09-20T02:21:51.494Z,99886.82
2022-09-20T02:27:17.684Z,99885.95
2022-09-20T02:32:39.075Z,99892.76
2022-09-20T02:37:51.397Z,99896.31
2022-09-20T02:43:03.747Z,99902.33
2022-09-20T02:48:06.978Z,99903.43
2022-09-20T02:53:36.122Z,99905.23
2022-09-20T02:59:04.787Z,99912.36
2022-09-20T03:04:07.784Z,99912.30
2022-09-20T03:09:29.698Z,99912.21
2022-09-20T03:14:35.567Z,99920.30
2022-09-20T03:20:00.796Z,99923.33
2022-09-20T03:25:39.536Z,99924.02
2022-09-20T03:30:57.179Z,99926.60
2022-09-20T03:36:08.885Z,99929.85
2022-09-20T03:41:30.186Z,99935.85
2022-09-20T03:46:46.847Z,99941.65
2022-09-20T03:52:17.703Z,99950.40
2022-09-20T03:58:08.753Z,99954.36
2022-09-20T04:03:23.536Z,99957.80
2022-09-20T04:09:03.887Z,99955.63
2022-09-20T04:14:30.192Z,99962.39
2022-09-20T04:19:42.332Z,99962.92
2022-09-20T04:25:01.535Z,99962.95
2022-09-20T04:30:07.743Z,99968.89
2022-09-20T04:35:38.483Z,99969.41
2022-09-20T04:40:41.635Z,99973.77
2022-09-20T04:45:54.001Z,99970.06
2022-09-20T04:51:07.663Z,99977.98
2022-09-20T04:56:41.423Z,99979.61
2022-09-20T05:02:26.323Z,99988.75
2022-09-20T05:07:52.412Z,99998.84
2022-09-20T05:13:09.952Z,100005.36
2022-09-20T05:18:24.820Z,100013.83
2022-09-20T05:23:46.570Z,100018.73
2022-09-20T05:28:57.211Z,100021.84
2022-09-20T05:34:16.628Z,100022.52
2022-09-20T05:39:32.144Z,100021.92
2022-09-20T05:44:49.789Z,100025.42
2022-09-20T05:50:25.251Z,100030.84
2022-09-20T05:55:43.613Z,100037.24
2022-09-20T06:00:53.603Z,100044.56
2022-09-20T06:06:07.459Z,100048.24
2022-09-20T06:11:35.628Z,100051.52
2022-09-20T06:16:43.133Z,100054.89
2022-09-20T06:21:55.663Z,100054.58
2022-09-20T06:27:04.811Z,100061.89
2022-09-20T06:32:08.743Z,100064.13
2022-09-20T06:37:36.846Z,100069.95
2022-09-20T06:42:39.940Z,100071.31
2022-09-20T06:47:43.060Z,100078.04
2022-09-20T06:52:47.051Z,100077.90
2022-09-20T06:57:51.772Z,100082.98
2022-09-20T07:02:55.794Z,100085.14
2022-09-20T07:08:00.174Z,100098.21
2022-09-20T07:13:03.585Z,100108.73
2022-09-20T07:18:08.589Z,100117.98
2022-09-20T07:23:11.619Z,100120.33
2022-09-20T07:28:14.856Z,100122.98
2022-09-20T07:33:21.810Z,100129.80
2022-09-20T07:38:25.131Z,100129.23
2022-09-20T07:43:29.936Z,100127.05
2022-09-20T07:48:36.247Z,100125.17
2022-09-20T07:53:40.616Z,100133.37
2022-09-20T07:58:48.749Z,100133.90
2022-09-20T08:03:55.636Z,100129.88
2022-09-20T08:08:58.842Z,100124.73
2022-09-20T08:14:08.144Z,100131.70
2022-09-20T08:19:23.531Z,100134.98
2022-09-20T08:24:27.004Z,100136.84
2022-09-20T08:29:30.622Z,100140.79
2022-09-20T08:34:33.780Z,100145.81
2022-09-20T08:45:22.255Z,100146.93
2022-09-20T08:50:27.278Z,100152.98
2022-09-20T08:55:37.731Z,100154.46
2022-09-20T09:00:44.364Z,100151.52
2022-09-20T09:05:51.173Z,100152.89
2022-09-20T09:10:58.143Z,100155.45
2022-09-20T09:16:07.855Z,100155.94
2022-09-20T09:21:30.149Z,100154.55
2022-09-20T09:26:39.192Z,100155.02
2022-09-20T09:31:45.479Z,100152.43
2022-09-20T09:36:49.193Z,100149.26
2022-09-20T09:41:53.043Z,100151.94
2022-09-20T09:46:57.755Z,100153.80
2022-09-20T09:52:16.146Z,100152.88
2022-09-20T09:57:49.130Z,100151.61
2022-09-20T10:03:14.260Z,100148.77
2022-09-20T10:08:36.273Z,100146.50
2022-09-20T10:13:45.451Z,100148.94
2022-09-20T10:18:59.410Z,100138.61
2022-09-20T10:24:05.901Z,100138.26
2022-09-20T10:29:24.589Z,100143.16
2022-09-20T10:34:54.291Z,100148.48
2022-09-20T10:40:53.104Z,100152.76
2022-09-20T10:46:31.905Z,100161.20
2022-09-20T10:51:54.920Z,100175.68
2022-09-20T10:57:17.480Z,100176.79
2022-09-20T11:02:52.233Z,100177.55
2022-09-20T11:08:16.015Z,100178.31
2022-09-20T11:13:38.786Z,100176.76
2022-09-20T11:18:54.609Z,100183.67
2022-09-20T11:24:14.821Z,100189.30
2022-09-20T11:29:42.579Z,100192.66
2022-09-20T11:34:59.507Z,100195.88
2022-09-20T11:40:28.142Z,100204.61
2022-09-20T11:45:32.160Z,100211.83
2022-09-20T11:50:47.776Z,100212.73
2022-09-20T11:55:51.045Z,100216.42
2022-09-20T12:00:57.587Z,100211.81
2022-09-20T12:06:09.853Z,100217.36
2022-09-20T12:11:16.526Z,100219.89
2022-09-20T12:16:36.994Z,100219.75
2022-09-20T12:21:58.796Z,100214.16
2022-09-20T12:27:21.976Z,100218.77
2022-09-20T12:32:52.526Z,100219.55
2022-09-20T12:37:56.141Z,100217.57
2022-09-20T12:42:59.454Z,100222.40
2022-09-20T12:48:03.069Z,100225.91
2022-09-20T12:53:14.643Z,100227.92
2022-09-20T12:58:23.208Z,100228.30
2022-09-20T13:03:41.474Z,100236.99
2022-09-20T13:09:04.548Z,100234.41
2022-09-20T13:14:10.819Z,100237.09
2022-09-20T13:19:30.617Z,100241.63
2022-09-20T13:24:38.644Z,100242.95
2022-09-20T13:29:44.972Z,100245.61
2022-09-20T13:35:25.707Z,100245.59
2022-09-20T13:40:39.313Z,100254.08
2022-09-20T13:45:44.100Z,100254.30
2022-09-20T13:50:52.743Z,100253.70
2022-09-20T13:55:57.893Z,100258.15
2022-09-20T14:01:09.947Z,100259.70
2022-09-20T14:06:16.219Z,100264.38
2022-09-20T14:11:24.316Z,100262.81
2022-09-20T14:16:40.298Z,100265.07
2022-09-20T14:21:44.859Z,100268.86
2022-09-20T14:27:04.970Z,100279.79
2022-09-20T14:32:18.728Z,100283.45
2022-09-20T14:37:30.017Z,100284.70
2022-09-20T14:42:43.110Z,100286.77
2022-09-20T14:47:56.503Z,100284.66
2022-09-20T14:53:03.358Z,100290.55
2022-09-20T14:58:15.925Z,100293.89
2022-09-20T15:03:39.582Z,100294.77
2022-09-20T15:08:46.332Z,100293.29
2022-09-20T15:13:49.724Z,100294.34
2022-09-20T15:18:53.230Z,100299.92
2022-09-20T15:23:57.160Z,100300.61
2022-09-20T15:29:01.289Z,100303.61
2022-09-20T15:34:07.677Z,100306.70
2022-09-20T15:39:11.698Z,100311.84
2022-09-20T15:44:19.315Z,100311.20
2022-09-20T15:49:22.723Z,100315.83
2022-09-20T15:54:27.061Z,100321.70
2022-09-20T15:59:33.481Z,100325.25
2022-09-20T16:04:37.881Z,100330.99
2022-09-20T16:09:41.290Z,100332.67
2022-09-20T16:14:45.220Z,100338.29
2022-09-20T16:19:49.243Z,100336.69
2022-09-20T16:24:52.839Z,100343.42
2022-09-20T16:29:57.240Z,100345.50
2022-09-20T16:35:05.564Z,100354.44
2022-09-20T16:40:13.051Z,100356.90
2022-09-20T16:45:17.409Z,100360.81
2022-09-20T16:50:21.863Z,100365.98
2022-09-20T16:55:25.137Z,100371.95
2022-09-20T17:00:28.745Z,100383.75
2022-09-20T17:05:33.140Z,100389.99
2022-09-20T17:10:36.373Z,100396.63
2022-09-20T17:15:40.185Z,100405.82
2022-09-20T17:20:45.938Z,100409.81
2022-09-20T17:25:51.178Z,100416.66
2022-09-20T17:31:01.115Z,100423.58
2022-09-20T17:36:06.798Z,100423.52
2022-09-20T17:41:17.392Z,100420.24
2022-09-20T17:46:26.510Z,100418.81
2022-09-20T17:51:33.429Z,100422.88
2022-09-20T17:56:37.511Z,100424.11
2022-09-20T18:01:42.775Z,100431.54
2022-09-20T18:06:50.167Z,100436.46
2022-09-20T18:11:55.017Z,100441.00
2022-09-20T18:17:01.666Z,100443.31
2022-09-20T18:22:06.131Z,100444.90
2022-09-20T18:27:09.730Z,100455.02
2022-09-20T18:32:14.317Z,100455.52
2022-09-20T18:37:19.351Z,100458.38
2022-09-20T18:42:23.275Z,100460.29
2022-09-20T18:47:28.809Z,100464.97
2022-09-20T18:52:32.264Z,100468.28
2022-09-20T18:57:36.170Z,100470.05
2022-09-20T19:02:58.642Z,100476.25
2022-09-20T19:08:20.680Z,100479.30
2022-09-20T19:13:59.373Z,100484.77
2022-09-20T19:19:26.306Z,100487.00
2022-09-20T19:24:41.796Z,100491.84
2022-09-20T19:29:46.655Z,100497.20
2022-09-20T19:35:02.046Z,100503.68
2022-09-20T19:40:12.670Z,100503.68
2022-09-20T19:45:22.988Z,100510.28
2022-09-20T19:50:49.682Z,100510.48
2022-09-20T19:56:02.576Z,100511.51
2022-09-20T20:01:07.563Z,100516.09
2022-09-20T20:06:34.698Z,100515.56
2022-09-20T20:11:41.689Z,100522.75
2022-09-20T20:17:03.342Z,100524.98
2022-09-20T20:22:16.066Z,100532.26
2022-09-20T20:27:21.230Z,100534.44
2022-09-20T20:32:24.528Z,100535.83
2022-09-20T20:37:29.791Z,100538.83
2022-09-20T20:42:34.110Z,100541.77
2022-09-20T20:47:37.696Z,100545.22
2022-09-20T20:52:41.374Z,100545.48
2022-09-20T20:57:45.381Z,100551.83
2022-09-20T21:02:49.347Z,100554.46
2022-09-20T21:07:53.645Z,100564.16
2022-09-20T21:12:58.779Z,100564.68
2022-09-20T21:18:02.521Z,100566.98
2022-09-20T21:23:06.443Z,100564.73
2022-09-20T21:28:09.649Z,100566.13
2022-09-20T21:33:12.757Z,100567.95
2022-09-20T21:38:16.487Z,100565.69
2022-09-20T21:43:19.582Z,100565.71
2022-09-20T21:48:24.224Z,100571.20
2022-09-20T21:53:27.470Z,100571.63
2022-09-20T21:58:31.049Z,100575.58
2022-09-20T22:03:39.611Z,100576.31
2022-09-20T22:08:47.399Z,100575.03
2022-09-20T22:13:52.593Z,100576.52
2022-09-20T22:18:57.098Z,100584.36
2022-09-20T22:24:03.042Z,100583.55
2022-09-20T22:29:07.192Z,100588.58
2022-09-20T22:34:11.425Z,100598.10
2022-09-20T22:39:15.350Z,100599.65
2022-09-20T22:44:18.454Z,100605.05
2022-09-20T22:49:21.563Z,100603.83
2022-09-20T22:54:24.666Z,100602.05
2022-09-20T22:59:27.771Z,100600.14
2022-09-20T23:04:31.081Z,100599.63
2022-09-20T23:09:34.187Z,100599.20
2022-09-20T23:14:37.189Z,100601.54
2022-09-20T23:19:40.399Z,100600.72
2022-09-20T23:24:43.607Z,100602.69
2022-09-20T23:29:46.612Z,100600.77
2022-09-20T23:34:50.003Z,100603.60
2022-09-20T23:39:53.126Z,100605.23
2022-09-20T23:44:56.133Z,100605.11
2022-09-20T23:49:59.237Z,100603.85
2022-09-20T23:55:02.343Z,100613.76
